sensor_id;sensor_type;location;lat;lon;timestamp;pressure;altitude;pressure_sealevel;temperature;humidity
44001;BME280;29660;42.892;24.710;2022-09-28T00:03:16;95928.59;;;11.71;100.00
44001;BME280;29660;42.892;24.710;2022-09-28T00:08:18;95909.06;;;11.49;100.00
44001;BME280;29660;42.892;24.710;2022-09-28T00:13:20;95936.34;;;11.55;100.00
44001;BME280;29660;42.892;24.710;2022-09-28T00:18:22;95933.56;;;11.51;100.00
44001;BME280;29660;42.892;24.710;2022-09-28T00:23:24;95944.38;;;11.55;100.00
44001;BME280;29660;42.892;24.710;2022-09-28T00:28:26;95782.47;;;10.48;100.00
44001;BME280;29660;42.892;24.710;2022-09-28T00:33:28;95734.63;;;10.17;100.00
44001;BME280;29660;42.892;24.710;2022-09-28T00:38:30;95690.47;;;9.81;100.00
44001;BME280;29660;42.892;24.710;2022-09-28T00:43:34;95890.00;;;11.13;100.00
44001;BME280;29660;42.892;24.710;2022-09-28T00:48:38;95811.75;;;10.56;100.00
44001;BME280;29660;42.892;24.710;2022-09-28T00:53:43;95939.56;;;11.31;100.00
44001;BME280;29660;42.892;24.710;2022-09-28T00:58:49;95656.16;;;9.62;100.00
44001;BME280;29660;42.892;24.710;2022-09-28T01:03:52;95702.84;;;9.77;100.00
44001;BME280;29660;42.892;24.710;2022-09-28T01:08:57;95677.78;;;9.43;100.00
44001;BME280;29660;42.892;24.710;2022-09-28T01:14:01;95942.09;;;11.19;100.00
44001;BME280;29660;42.892;24.710;2022-09-28T01:24:57;95954.66;;;11.10;100.00
44001;BME280;29660;42.892;24.710;2022-09-28T01:30:05;95932.22;;;11.11;100.00
44001;BME280;29660;42.892;24.710;2022-09-28T01:35:13;95926.56;;;11.03;100.00
44001;BME280;29660;42.892;24.710;2022-09-28T01:40:18;95681.66;;;9.37;100.00
44001;BME280;29660;42.892;24.710;2022-09-28T01:45:26;95803.44;;;10.15;100.00
44001;BME280;29660;42.892;24.710;2022-09-28T01:50:35;95689.50;;;9.42;100.00
44001;BME280;29660;42.892;24.710;2022-09-28T01:55:47;95781.78;;;9.90;100.00
44001;BME280;29660;42.892;24.710;2022-09-28T02:00:56;95709.50;;;9.31;100.00
44001;BME280;29660;42.892;24.710;2022-09-28T02:06:06;95920.94;;;10.62;100.00
44001;BME280;29660;42.892;24.710;2022-09-28T02:11:14;95675.81;;;9.00;100.00
44001;BME280;29660;42.892;24.710;2022-09-28T02:16:39;95975.66;;;10.68;100.00
44001;BME280;29660;42.892;24.710;2022-09-28T02:26:53;95941.44;;;10.52;100.00
44001;BME280;29660;42.892;24.710;2022-09-28T02:31:58;95690.28;;;8.85;100.00
44001;BME280;29660;42.892;24.710;2022-09-28T02:37:01;95757.97;;;9.19;100.00
44001;BME280;29660;42.892;24.710;2022-09-28T02:42:27;95953.03;;;10.39;100.00
44001;BME280;29660;42.892;24.710;2022-09-28T02:58:32;95968.09;;;10.35;100.00
44001;BME280;29660;42.892;24.710;2022-09-28T03:04:04;95675.84;;;8.38;100.00
44001;BME280;29660;42.892;24.710;2022-09-28T03:09:18;95873.69;;;9.70;100.00
44001;BME280;29660;42.892;24.710;2022-09-28T03:14:21;95888.09;;;9.69;100.00
44001;BME280;29660;42.892;24.710;2022-09-28T03:19:31;95756.72;;;8.77;100.00
44001;BME280;29660;42.892;24.710;2022-09-28T03:24:34;95929.97;;;9.86;100.00
44001;BME280;29660;42.892;24.710;2022-09-28T03:29:36;95514.53;;;7.14;100.00
44001;BME280;29660;42.892;24.710;2022-09-28T03:34:40;95720.47;;;8.50;100.00
44001;BME280;29660;42.892;24.710;2022-09-28T03:39:44;95964.66;;;10.03;100.00
44001;BME280;29660;42.892;24.710;2022-09-28T03:44:46;95873.03;;;9.56;100.00
44001;BME280;29660;42.892;24.710;2022-09-28T03:49:49;95960.28;;;10.07;100.00
44001;BME280;29660;42.892;24.710;2022-09-28T03:54:51;95953.84;;;10.00;100.00
44001;BME280;29660;42.892;24.710;2022-09-28T03:59:53;95778.03;;;8.85;100.00
44001;BME280;29660;42.892;24.710;2022-09-28T04:04:55;95895.69;;;9.53;100.00
44001;BME280;29660;42.892;24.710;2022-09-28T04:09:57;96009.06;;;10.17;100.00
44001;BME280;29660;42.892;24.710;2022-09-28T04:14:59;96011.34;;;10.32;100.00
44001;BME280;29660;42.892;24.710;2022-09-28T04:20:02;96018.22;;;10.33;100.00
44001;BME280;29660;42.892;24.710;2022-09-28T04:25:18;95827.00;;;9.16;100.00
44001;BME280;29660;42.892;24.710;2022-09-28T04:30:20;95753.66;;;8.61;100.00
44001;BME280;29660;42.892;24.710;2022-09-28T04:35:22;95791.91;;;8.82;100.00
44001;BME280;29660;42.892;24.710;2022-09-28T04:40:25;95920.94;;;9.56;100.00
44001;BME280;29660;42.892;24.710;2022-09-28T04:45:27;96013.59;;;10.16;100.00
44001;BME280;29660;42.892;24.710;2022-09-28T04:50:35;96032.03;;;10.35;100.00
44001;BME280;29660;42.892;24.710;2022-09-28T04:55:58;95858.28;;;9.19;100.00
44001;BME280;29660;42.892;24.710;2022-09-28T05:01:04;95727.16;;;8.47;100.00
44001;BME280;29660;42.892;24.710;2022-09-28T05:06:33;95975.84;;;10.23;100.00
44001;BME280;29660;42.892;24.710;2022-09-28T05:11:39;95913.88;;;10.00;100.00
44001;BME280;29660;42.892;24.710;2022-09-28T05:16:47;96003.25;;;10.63;100.00
44001;BME280;29660;42.892;24.710;2022-09-28T05:22:10;95968.09;;;10.52;100.00
44001;BME280;29660;42.892;24.710;2022-09-28T05:27:19;95913.84;;;10.31;100.00
44001;BME280;29660;42.892;24.710;2022-09-28T05:32:41;96033.75;;;11.23;100.00
44001;BME280;29660;42.892;24.710;2022-09-28T05:38:01;95766.25;;;9.66;100.00
44001;BME280;29660;42.892;24.710;2022-09-28T05:43:04;95765.19;;;9.76;100.00
44001;BME280;29660;42.892;24.710;2022-09-28T05:48:06;95731.34;;;9.76;100.00
44001;BME280;29660;42.892;24.710;2022-09-28T05:53:09;96006.22;;;11.74;100.00
44001;BME280;29660;42.892;24.710;2022-09-28T05:58:11;95747.50;;;10.23;100.00
44001;BME280;29660;42.892;24.710;2022-09-28T06:03:13;95748.75;;;10.43;100.00
44001;BME280;29660;42.892;24.710;2022-09-28T06:08:16;95765.34;;;10.66;100.00
44001;BME280;29660;42.892;24.710;2022-09-28T06:13:22;95576.03;;;9.55;100.00
44001;BME280;29660;42.892;24.710;2022-09-28T06:18:25;96038.41;;;12.72;100.00
44001;BME280;29660;42.892;24.710;2022-09-28T06:23:49;95970.34;;;12.61;100.00
44001;BME280;29660;42.892;24.710;2022-09-28T06:28:52;95971.16;;;12.82;100.00
44001;BME280;29660;42.892;24.710;2022-09-28T06:33:54;95975.66;;;13.11;100.00
44001;BME280;29660;42.892;24.710;2022-09-28T06:38:56;95916.38;;;13.00;100.00
44001;BME280;29660;42.892;24.710;2022-09-28T06:43:59;95935.59;;;13.36;100.00
44001;BME280;29660;42.892;24.710;2022-09-28T06:49:31;95959.59;;;13.78;100.00
44001;BME280;29660;42.892;24.710;2022-09-28T06:54:48;95957.41;;;14.04;100.00
44001;BME280;29660;42.892;24.710;2022-09-28T07:00:09;96010.38;;;14.81;100.00
44001;BME280;29660;42.892;24.710;2022-09-28T07:05:11;96013.13;;;15.09;100.00
44001;BME280;29660;42.892;24.710;2022-09-28T07:10:30;95944.59;;;14.99;100.00
44001;BME280;29660;42.892;24.710;2022-09-28T07:15:37;95772.16;;;14.21;100.00
44001;BME280;29660;42.892;24.710;2022-09-28T07:20:40;96019.44;;;16.13;100.00
44001;BME280;29660;42.892;24.710;2022-09-28T07:25:54;95815.84;;;15.18;100.00
44001;BME280;29660;42.892;24.710;2022-09-28T07:31:16;96014.75;;;16.73;100.00
44001;BME280;29660;42.892;24.710;2022-09-28T07:36:39;96010.25;;;16.97;99.23
44001;BME280;29660;42.892;24.710;2022-09-28T07:41:41;96004.56;;;17.37;93.55
44001;BME280;29660;42.892;24.710;2022-09-28T07:46:45;95745.22;;;16.01;96.72
44001;BME280;29660;42.892;24.710;2022-09-28T07:52:19;95993.53;;;18.04;91.61
44001;BME280;29660;42.892;24.710;2022-09-28T07:57:41;95974.56;;;18.23;93.37
44001;BME280;29660;42.892;24.710;2022-09-28T08:03:20;95999.66;;;18.73;86.08
44001;BME280;29660;42.892;24.710;2022-09-28T08:08:26;95811.88;;;17.73;90.07
44001;BME280;29660;42.892;24.710;2022-09-28T08:13:30;95796.03;;;17.95;84.96
44001;BME280;29660;42.892;24.710;2022-09-28T08:18:50;95950.59;;;19.28;83.52
44001;BME280;29660;42.892;24.710;2022-09-28T08:23:52;95767.19;;;18.25;80.48
44001;BME280;29660;42.892;24.710;2022-09-28T08:28:54;95763.50;;;18.40;80.69
44001;BME280;29660;42.892;24.710;2022-09-28T08:34:14;95765.44;;;18.40;72.02
44001;BME280;29660;42.892;24.710;2022-09-28T08:39:28;95756.03;;;18.60;72.07
44001;BME280;29660;42.892;24.710;2022-09-28T08:44:52;95572.22;;;17.68;73.15
44001;BME280;29660;42.892;24.710;2022-09-28T08:50:32;95933.47;;;20.32;71.63
44001;BME280;29660;42.892;24.710;2022-09-28T08:56:02;95964.38;;;20.82;68.78
44001;BME280;29660;42.892;24.710;2022-09-28T09:01:07;95925.31;;;20.83;72.75
44001;BME280;29660;42.892;24.710;2022-09-28T09:11:54;95945.34;;;21.52;66.21
44001;BME280;29660;42.892;24.710;2022-09-28T09:33:03;95947.75;;;22.00;55.03
44001;BME280;29660;42.892;24.710;2022-09-28T09:39:04;95908.19;;;21.92;56.44
44001;BME280;29660;42.892;24.710;2022-09-28T09:44:40;95949.31;;;22.12;55.49
44001;BME280;29660;42.892;24.710;2022-09-28T09:50:37;95959.41;;;22.04;56.95
44001;BME280;29660;42.892;24.710;2022-09-28T09:55:46;95927.56;;;21.79;59.89
44001;BME280;29660;42.892;24.710;2022-09-28T10:01:11;95967.94;;;22.06;60.83
44001;BME280;29660;42.892;24.710;2022-09-28T10:06:34;95737.09;;;20.56;60.96
44001;BME280;29660;42.892;24.710;2022-09-28T10:11:42;95913.22;;;21.58;62.50
44001;BME280;29660;42.892;24.710;2022-09-28T10:16:52;95557.88;;;19.31;62.64
44001;BME280;29660;42.892;24.710;2022-09-28T10:22:21;95728.09;;;20.45;60.70
44001;BME280;29660;42.892;24.710;2022-09-28T10:27:30;95990.44;;;22.06;63.19
44001;BME280;29660;42.892;24.710;2022-09-28T10:32:54;95967.97;;;22.20;61.17
44001;BME280;29660;42.892;24.710;2022-09-28T10:38:06;95965.66;;;22.37;65.15
44001;BME280;29660;42.892;24.710;2022-09-28T10:43:36;95736.81;;;21.11;55.88
44001;BME280;29660;42.892;24.710;2022-09-28T10:54:01;95746.09;;;21.92;57.44
44001;BME280;29660;42.892;24.710;2022-09-28T10:59:38;95719.78;;;21.71;55.52
44001;BME280;29660;42.892;24.710;2022-09-28T11:05:05;95924.41;;;23.02;48.50
44001;BME280;29660;42.892;24.710;2022-09-28T11:10:26;95732.16;;;21.76;49.27
44001;BME280;29660;42.892;24.710;2022-09-28T11:15:32;95734.44;;;22.06;50.39
44001;BME280;29660;42.892;24.710;2022-09-28T11:20:38;95765.34;;;22.55;49.23
44001;BME280;29660;42.892;24.710;2022-09-28T11:26:17;95935.25;;;23.97;47.57
44001;BME280;29660;42.892;24.710;2022-09-28T11:31:25;95714.19;;;22.39;45.36
44001;BME280;29660;42.892;24.710;2022-09-28T11:36:44;95951.16;;;24.03;44.25
44001;BME280;29660;42.892;24.710;2022-09-28T11:42:16;95938.63;;;24.12;41.05
44001;BME280;29660;42.892;24.710;2022-09-28T11:47:40;95925.22;;;24.32;41.35
44001;BME280;29660;42.892;24.710;2022-09-28T11:58:38;95705.16;;;23.26;41.29
44001;BME280;29660;42.892;24.710;2022-09-28T12:04:13;95912.28;;;24.85;41.87
44001;BME280;29660;42.892;24.710;2022-09-28T12:09:33;95887.16;;;24.66;40.24
44001;BME280;29660;42.892;24.710;2022-09-28T12:14:45;95660.13;;;23.18;41.71
44001;BME280;29660;42.892;24.710;2022-09-28T12:19:51;95666.28;;;23.26;42.02
44001;BME280;29660;42.892;24.710;2022-09-28T12:24:56;95725.81;;;23.62;41.48
44001;BME280;29660;42.892;24.710;2022-09-28T12:30:04;95905.31;;;24.84;41.44
44001;BME280;29660;42.892;24.710;2022-09-28T13:07:53;95903.47;;;25.11;37.89
44001;BME280;29660;42.892;24.710;2022-09-28T13:13:10;95905.75;;;25.13;39.62
44001;BME280;29660;42.892;24.710;2022-09-28T13:23:58;95783.91;;;23.93;41.51
44001;BME280;29660;42.892;24.710;2022-09-28T13:29:21;95660.09;;;23.22;41.80
44001;BME280;29660;42.892;24.710;2022-09-28T13:34:27;95706.22;;;23.40;43.19
44001;BME280;29660;42.892;24.710;2022-09-28T13:39:56;95647.41;;;23.08;41.77
44001;BME280;29660;42.892;24.710;2022-09-28T13:45:04;95909.13;;;24.90;41.06
44001;BME280;29660;42.892;24.710;2022-09-28T13:50:31;95904.44;;;24.90;41.72
44001;BME280;29660;42.892;24.710;2022-09-28T14:01:26;95695.38;;;23.33;41.20
44001;BME280;29660;42.892;24.710;2022-09-28T14:06:31;95717.56;;;23.31;40.15
44001;BME280;29660;42.892;24.710;2022-09-28T14:16:37;95913.44;;;24.49;41.10
44001;BME280;29660;42.892;24.710;2022-09-28T14:32:23;95921.06;;;24.65;41.22
44001;BME280;29660;42.892;24.710;2022-09-28T14:37:36;95744.38;;;23.29;41.39
44001;BME280;29660;42.892;24.710;2022-09-28T14:59:05;95728.25;;;22.09;49.21
44001;BME280;29660;42.892;24.710;2022-09-28T15:04:10;95751.50;;;22.03;51.74
44001;BME280;29660;42.892;24.710;2022-09-28T15:09:33;95960.13;;;23.19;56.43
44001;BME280;29660;42.892;24.710;2022-09-28T15:20:07;95781.00;;;21.65;61.79
44001;BME280;29660;42.892;24.710;2022-09-28T15:25:18;95958.66;;;22.57;65.32
44001;BME280;29660;42.892;24.710;2022-09-28T15:30:38;95731.75;;;20.95;66.40
44001;BME280;29660;42.892;24.710;2022-09-28T15:35:40;95748.78;;;20.92;65.19
44001;BME280;29660;42.892;24.710;2022-09-28T15:40:43;95737.50;;;20.69;65.65
44001;BME280;29660;42.892;24.710;2022-09-28T15:45:55;95963.66;;;21.87;67.41
44001;BME280;29660;42.892;24.710;2022-09-28T15:51:08;95981.50;;;21.99;69.43
44001;BME280;29660;42.892;24.710;2022-09-28T15:56:11;95861.09;;;21.02;69.71
44001;BME280;29660;42.892;24.710;2022-09-28T16:01:34;95796.16;;;20.43;71.44
44001;BME280;29660;42.892;24.710;2022-09-28T16:06:39;95965.38;;;21.29;75.03
44001;BME280;29660;42.892;24.710;2022-09-28T16:11:41;95910.03;;;20.54;78.65
44001;BME280;29660;42.892;24.710;2022-09-28T16:16:47;96008.66;;;21.04;76.67
44001;BME280;29660;42.892;24.710;2022-09-28T16:21:51;96003.53;;;20.89;77.04
44001;BME280;29660;42.892;24.710;2022-09-28T16:27:02;96018.13;;;20.73;78.90
44001;BME280;29660;42.892;24.710;2022-09-28T16:37:31;96011.94;;;20.28;82.56
44001;BME280;29660;42.892;24.710;2022-09-28T16:42:34;95790.03;;;18.65;83.92
44001;BME280;29660;42.892;24.710;2022-09-28T16:47:36;95991.25;;;19.69;84.77
44001;BME280;29660;42.892;24.710;2022-09-28T16:52:40;95982.50;;;19.49;85.40
44001;BME280;29660;42.892;24.710;2022-09-28T16:58:00;95842.19;;;18.43;84.77
44001;BME280;29660;42.892;24.710;2022-09-28T17:03:12;95828.81;;;18.23;85.82
44001;BME280;29660;42.892;24.710;2022-09-28T17:08:17;95791.31;;;17.88;85.19
44001;BME280;29660;42.892;24.710;2022-09-28T17:13:21;96033.19;;;19.25;85.84
44001;BME280;29660;42.892;24.710;2022-09-28T17:18:24;95602.56;;;16.36;85.42
44001;BME280;29660;42.892;24.710;2022-09-28T17:23:26;96019.97;;;18.90;86.43
44001;BME280;29660;42.892;24.710;2022-09-28T17:28:34;95903.47;;;17.89;89.35
44001;BME280;29660;42.892;24.710;2022-09-28T17:33:36;96032.78;;;18.70;85.81
44001;BME280;29660;42.892;24.710;2022-09-28T17:38:38;96039.63;;;18.64;88.40
44001;BME280;29660;42.892;24.710;2022-09-28T17:43:40;95787.19;;;16.79;89.24
44001;BME280;29660;42.892;24.710;2022-09-28T17:48:42;96049.59;;;18.37;90.19
44001;BME280;29660;42.892;24.710;2022-09-28T17:53:47;95620.25;;;15.40;90.34
44001;BME280;29660;42.892;24.710;2022-09-28T17:58:49;96015.63;;;17.90;90.20
44001;BME280;29660;42.892;24.710;2022-09-28T18:03:51;96000.66;;;17.73;91.39
44001;BME280;29660;42.892;24.710;2022-09-28T18:08:53;95807.75;;;16.33;91.54
44001;BME280;29660;42.892;24.710;2022-09-28T18:13:55;95904.97;;;16.82;93.22
44001;BME280;29660;42.892;24.710;2022-09-28T18:18:57;95816.78;;;16.05;94.27
44001;BME280;29660;42.892;24.710;2022-09-28T18:24:00;96049.59;;;17.36;97.77
44001;BME280;29660;42.892;24.710;2022-09-28T18:29:02;96090.31;;;17.31;98.99
44001;BME280;29660;42.892;24.710;2022-09-28T18:34:04;96029.41;;;16.91;96.93
44001;BME280;29660;42.892;24.710;2022-09-28T18:39:06;95800.22;;;15.24;97.66
44001;BME280;29660;42.892;24.710;2022-09-28T18:44:09;95823.47;;;15.32;96.49
44001;BME280;29660;42.892;24.710;2022-09-28T18:49:11;95872.78;;;15.56;96.74
44001;BME280;29660;42.892;24.710;2022-09-28T18:54:13;96042.44;;;16.58;97.89
44001;BME280;29660;42.892;24.710;2022-09-28T18:59:15;95926.06;;;15.66;96.69
44001;BME280;29660;42.892;24.710;2022-09-28T19:04:17;96065.88;;;16.57;99.46
44001;BME280;29660;42.892;24.710;2022-09-28T19:09:22;96025.09;;;16.24;99.37
44001;BME280;29660;42.892;24.710;2022-09-28T19:14:25;95821.94;;;14.87;98.36
44001;BME280;29660;42.892;24.710;2022-09-28T19:19:28;95853.72;;;15.01;97.56
44001;BME280;29660;42.892;24.710;2022-09-28T19:24:30;95855.63;;;15.01;98.40
44001;BME280;29660;42.892;24.710;2022-09-28T19:29:32;96110.88;;;16.57;98.57
44001;BME280;29660;42.892;24.710;2022-09-28T19:34:34;95851.25;;;14.80;98.61
44001;BME280;29660;42.892;24.710;2022-09-28T19:39:36;95896.66;;;15.13;97.61
44001;BME280;29660;42.892;24.710;2022-09-28T19:44:38;95850.84;;;14.78;98.07
44001;BME280;29660;42.892;24.710;2022-09-28T19:49:40;96105.91;;;16.27;99.19
44001;BME280;29660;42.892;24.710;2022-09-28T19:54:50;96068.78;;;15.89;100.00
44001;BME280;29660;42.892;24.710;2022-09-28T19:59:58;96059.53;;;15.74;100.00
44001;BME280;29660;42.892;24.710;2022-09-28T20:05:06;96085.84;;;15.81;100.00
44001;BME280;29660;42.892;24.710;2022-09-28T20:10:08;95839.22;;;14.09;100.00
44001;BME280;29660;42.892;24.710;2022-09-28T20:15:12;96061.94;;;15.51;100.00
44001;BME280;29660;42.892;24.710;2022-09-28T20:20:14;96100.97;;;15.73;100.00
44001;BME280;29660;42.892;24.710;2022-09-28T20:25:17;96073.00;;;15.21;100.00
44001;BME280;29660;42.892;24.710;2022-09-28T20:30:19;96107.28;;;15.40;100.00
44001;BME280;29660;42.892;24.710;2022-09-28T20:35:21;96091.44;;;15.23;100.00
44001;BME280;29660;42.892;24.710;2022-09-28T20:40:37;95839.44;;;13.55;100.00
44001;BME280;29660;42.892;24.710;2022-09-28T20:45:40;95991.28;;;14.45;100.00
44001;BME280;29660;42.892;24.710;2022-09-28T20:50:43;95853.53;;;13.52;100.00
44001;BME280;29660;42.892;24.710;2022-09-28T20:55:45;95852.28;;;13.49;100.00
44001;BME280;29660;42.892;24.710;2022-09-28T21:00:47;95893.38;;;13.66;100.00
44001;BME280;29660;42.892;24.710;2022-09-28T21:05:49;96082.53;;;14.94;100.00
44001;BME280;29660;42.892;24.710;2022-09-28T21:10:52;95931.38;;;13.92;100.00
44001;BME280;29660;42.892;24.710;2022-09-28T21:15:54;96125.03;;;15.17;100.00
44001;BME280;29660;42.892;24.710;2022-09-28T21:21:04;96124.38;;;15.08;100.00
44001;BME280;29660;42.892;24.710;2022-09-28T21:26:15;96116.75;;;15.10;100.00
44001;BME280;29660;42.892;24.710;2022-09-28T21:31:20;95879.31;;;13.57;100.00
44001;BME280;29660;42.892;24.710;2022-09-28T21:36:30;95878.06;;;13.54;100.00
44001;BME280;29660;42.892;24.710;2022-09-28T21:41:34;95901.19;;;13.59;100.00
44001;BME280;29660;42.892;24.710;2022-09-28T21:46:37;95885.19;;;13.38;100.00
44001;BME280;29660;42.892;24.710;2022-09-28T21:51:39;96131.97;;;14.81;100.00
44001;BME280;29660;42.892;24.710;2022-09-28T21:56:41;96118.53;;;14.69;100.00
44001;BME280;29660;42.892;24.710;2022-09-28T22:01:44;95911.59;;;13.27;100.00
44001;BME280;29660;42.892;24.710;2022-09-28T22:06:47;95933.41;;;13.38;100.00
44001;BME280;29660;42.892;24.710;2022-09-28T22:11:48;95905.28;;;13.11;100.00
44001;BME280;29660;42.892;24.710;2022-09-28T22:16:53;95871.25;;;12.78;100.00
44001;BME280;29660;42.892;24.710;2022-09-28T22:21:55;95883.97;;;12.81;100.00
44001;BME280;29660;42.892;24.710;2022-09-28T22:26:57;96118.56;;;14.23;100.00
44001;BME280;29660;42.892;24.710;2022-09-28T22:32:00;96083.06;;;14.06;100.00
44001;BME280;29660;42.892;24.710;2022-09-28T22:37:03;95896.31;;;12.73;100.00
44001;BME280;29660;42.892;24.710;2022-09-28T22:42:06;96026.66;;;13.57;100.00
44001;BME280;29660;42.892;24.710;2022-09-28T22:47:08;96115.72;;;14.08;100.00
44001;BME280;29660;42.892;24.710;2022-09-28T22:52:10;96068.91;;;13.72;100.00
44001;BME280;29660;42.892;24.710;2022-09-28T22:57:12;95873.16;;;12.36;100.00
44001;BME280;29660;42.892;24.710;2022-09-28T23:02:15;95912.47;;;12.56;100.00
44001;BME280;29660;42.892;24.710;2022-09-28T23:07:17;96108.56;;;13.79;100.00
44001;BME280;29660;42.892;24.710;2022-09-28T23:12:19;95792.28;;;11.67;100.00
44001;BME280;29660;42.892;24.710;2022-09-28T23:17:21;96078.53;;;13.52;100.00
44001;BME280;29660;42.892;24.710;2022-09-28T23:22:23;96057.31;;;13.26;100.00
44001;BME280;29660;42.892;24.710;2022-09-28T23:27:24;96088.66;;;13.46;100.00
44001;BME280;29660;42.892;24.710;2022-09-28T23:32:26;95838.28;;;11.73;100.00
44001;BME280;29660;42.892;24.710;2022-09-28T23:37:32;96003.19;;;12.70;100.00
44001;BME280;29660;42.892;24.710;2022-09-28T23:42:34;95832.09;;;11.51;100.00
44001;BME280;29660;42.892;24.710;2022-09-28T23:47:36;96091.88;;;13.10;100.00
44001;BME280;29660;42.892;24.710;2022-09-28T23:52:39;95826.22;;;11.20;100.00
44001;BME280;29660;42.892;24.710;2022-09-28T23:57:44;95923.72;;;11.82;100.00
